sensor_id;sensor_type;location;lat;lon;timestamp;temperature;humidity
4677;DHT22;2352;48.180;11.478;2022-07-31T00:01:03;22.20;86.60
4677;DHT22;2352;48.180;11.478;2022-07-31T00:04:05;22.20;86.70
4677;DHT22;2352;48.180;11.478;2022-07-31T00:07:08;22.30;86.50
4677;DHT22;2352;48.180;11.478;2022-07-31T00:10:13;22.20;86.50
4677;DHT22;2352;48.180;11.478;2022-07-31T00:13:16;22.10;86.90
4677;DHT22;2352;48.180;11.478;2022-07-31T00:16:39;22.10;86.90
4677;DHT22;2352;48.180;11.478;2022-07-31T00:19:42;22.00;87.00
4677;DHT22;2352;48.180;11.478;2022-07-31T00:22:46;22.00;87.30
4677;DHT22;2352;48.180;11.478;2022-07-31T00:25:52;21.90;87.50
4677;DHT22;2352;48.180;11.478;2022-07-31T00:28:55;21.80;87.90
4677;DHT22;2352;48.180;11.478;2022-07-31T00:31:58;21.80;88.10
4677;DHT22;2352;48.180;11.478;2022-07-31T00:35:01;21.80;88.00
4677;DHT22;2352;48.180;11.478;2022-07-31T00:38:03;21.90;87.90
4677;DHT22;2352;48.180;11.478;2022-07-31T00:41:37;21.80;87.90
4677;DHT22;2352;48.180;11.478;2022-07-31T00:44:40;21.80;88.00
4677;DHT22;2352;48.180;11.478;2022-07-31T00:47:48;21.80;87.80
4677;DHT22;2352;48.180;11.478;2022-07-31T00:50:56;21.80;87.80
4677;DHT22;2352;48.180;11.478;2022-07-31T00:53:59;21.80;87.60
4677;DHT22;2352;48.180;11.478;2022-07-31T00:57:04;21.70;87.70
4677;DHT22;2352;48.180;11.478;2022-07-31T01:00:08;21.60;88.20
4677;DHT22;2352;48.180;11.478;2022-07-31T01:03:11;21.60;88.20
4677;DHT22;2352;48.180;11.478;2022-07-31T01:06:15;21.60;87.70
4677;DHT22;2352;48.180;11.478;2022-07-31T01:09:18;21.50;88.70
4677;DHT22;2352;48.180;11.478;2022-07-31T01:12:28;21.40;88.90
4677;DHT22;2352;48.180;11.478;2022-07-31T01:15:34;21.40;88.80
4677;DHT22;2352;48.180;11.478;2022-07-31T01:18:38;21.40;89.20
4677;DHT22;2352;48.180;11.478;2022-07-31T01:21:48;21.40;89.30
4677;DHT22;2352;48.180;11.478;2022-07-31T01:25:04;21.30;90.00
4677;DHT22;2352;48.180;11.478;2022-07-31T01:28:20;21.30;89.70
4677;DHT22;2352;48.180;11.478;2022-07-31T01:31:33;21.40;89.30
4677;DHT22;2352;48.180;11.478;2022-07-31T01:34:41;21.30;89.60
4677;DHT22;2352;48.180;11.478;2022-07-31T01:37:48;21.20;89.80
4677;DHT22;2352;48.180;11.478;2022-07-31T01:40:57;21.20;90.00
4677;DHT22;2352;48.180;11.478;2022-07-31T01:44:02;21.20;90.00
4677;DHT22;2352;48.180;11.478;2022-07-31T01:47:08;21.10;89.70
4677;DHT22;2352;48.180;11.478;2022-07-31T01:50:12;21.10;90.20
4677;DHT22;2352;48.180;11.478;2022-07-31T01:53:37;21.10;90.10
4677;DHT22;2352;48.180;11.478;2022-07-31T01:56:41;21.10;89.90
4677;DHT22;2352;48.180;11.478;2022-07-31T01:59:45;21.10;90.00
4677;DHT22;2352;48.180;11.478;2022-07-31T02:02:51;21.10;89.70
4677;DHT22;2352;48.180;11.478;2022-07-31T02:05:55;21.10;90.10
4677;DHT22;2352;48.180;11.478;2022-07-31T02:09:04;21.10;89.90
4677;DHT22;2352;48.180;11.478;2022-07-31T02:12:08;21.00;90.00
4677;DHT22;2352;48.180;11.478;2022-07-31T02:15:14;21.00;89.80
4677;DHT22;2352;48.180;11.478;2022-07-31T02:18:19;21.00;89.80
4677;DHT22;2352;48.180;11.478;2022-07-31T02:21:23;21.00;89.60
4677;DHT22;2352;48.180;11.478;2022-07-31T02:24:27;21.00;89.70
4677;DHT22;2352;48.180;11.478;2022-07-31T02:27:30;21.00;89.70
4677;DHT22;2352;48.180;11.478;2022-07-31T02:30:53;20.90;89.70
4677;DHT22;2352;48.180;11.478;2022-07-31T02:33:58;21.00;89.60
4677;DHT22;2352;48.180;11.478;2022-07-31T02:37:02;20.90;90.10
4677;DHT22;2352;48.180;11.478;2022-07-31T02:40:07;20.90;89.70
4677;DHT22;2352;48.180;11.478;2022-07-31T02:43:11;20.90;90.10
4677;DHT22;2352;48.180;11.478;2022-07-31T02:46:16;20.90;89.30
4677;DHT22;2352;48.180;11.478;2022-07-31T02:49:21;20.90;89.20
4677;DHT22;2352;48.180;11.478;2022-07-31T02:52:24;20.80;89.50
4677;DHT22;2352;48.180;11.478;2022-07-31T02:55:27;20.80;89.60
4677;DHT22;2352;48.180;11.478;2022-07-31T02:58:30;20.90;89.20
4677;DHT22;2352;48.180;11.478;2022-07-31T03:01:33;20.90;88.90
4677;DHT22;2352;48.180;11.478;2022-07-31T03:04:38;20.90;88.90
4677;DHT22;2352;48.180;11.478;2022-07-31T03:07:41;20.90;88.40
4677;DHT22;2352;48.180;11.478;2022-07-31T03:10:44;20.90;88.00
4677;DHT22;2352;48.180;11.478;2022-07-31T03:13:48;20.90;87.80
4677;DHT22;2352;48.180;11.478;2022-07-31T03:16:51;20.90;88.10
4677;DHT22;2352;48.180;11.478;2022-07-31T03:19:56;20.90;88.00
4677;DHT22;2352;48.180;11.478;2022-07-31T03:23:00;20.90;87.90
4677;DHT22;2352;48.180;11.478;2022-07-31T03:26:03;20.90;88.30
4677;DHT22;2352;48.180;11.478;2022-07-31T03:29:06;20.90;87.70
4677;DHT22;2352;48.180;11.478;2022-07-31T03:32:29;20.90;88.30
4677;DHT22;2352;48.180;11.478;2022-07-31T03:35:33;20.90;88.90
4677;DHT22;2352;48.180;11.478;2022-07-31T03:38:45;20.90;88.30
4677;DHT22;2352;48.180;11.478;2022-07-31T03:41:52;21.00;88.10
4677;DHT22;2352;48.180;11.478;2022-07-31T03:44:56;21.00;87.90
4677;DHT22;2352;48.180;11.478;2022-07-31T03:48:00;20.90;87.90
4677;DHT22;2352;48.180;11.478;2022-07-31T03:51:05;20.90;88.10
4677;DHT22;2352;48.180;11.478;2022-07-31T03:54:08;20.90;87.60
4677;DHT22;2352;48.180;11.478;2022-07-31T03:57:11;20.90;87.80
4677;DHT22;2352;48.180;11.478;2022-07-31T04:00:15;20.90;88.30
4677;DHT22;2352;48.180;11.478;2022-07-31T04:03:18;20.90;88.00
4677;DHT22;2352;48.180;11.478;2022-07-31T04:06:22;20.90;89.00
4677;DHT22;2352;48.180;11.478;2022-07-31T04:09:25;20.90;89.20
4677;DHT22;2352;48.180;11.478;2022-07-31T04:12:29;20.90;89.40
4677;DHT22;2352;48.180;11.478;2022-07-31T04:15:32;21.00;88.60
4677;DHT22;2352;48.180;11.478;2022-07-31T04:18:35;21.00;89.00
4677;DHT22;2352;48.180;11.478;2022-07-31T04:21:39;21.00;88.60
4677;DHT22;2352;48.180;11.478;2022-07-31T04:24:42;21.00;88.20
4677;DHT22;2352;48.180;11.478;2022-07-31T04:27:45;20.90;88.60
4677;DHT22;2352;48.180;11.478;2022-07-31T04:30:49;20.90;88.60
4677;DHT22;2352;48.180;11.478;2022-07-31T04:33:52;20.90;89.50
4677;DHT22;2352;48.180;11.478;2022-07-31T04:36:59;20.80;88.90
4677;DHT22;2352;48.180;11.478;2022-07-31T04:40:02;20.80;88.70
4677;DHT22;2352;48.180;11.478;2022-07-31T04:43:05;20.80;89.10
4677;DHT22;2352;48.180;11.478;2022-07-31T04:46:07;20.90;89.10
4677;DHT22;2352;48.180;11.478;2022-07-31T04:49:18;20.90;89.00
4677;DHT22;2352;48.180;11.478;2022-07-31T04:52:22;20.80;89.30
4677;DHT22;2352;48.180;11.478;2022-07-31T04:55:25;20.90;89.30
4677;DHT22;2352;48.180;11.478;2022-07-31T04:58:28;20.90;89.10
4677;DHT22;2352;48.180;11.478;2022-07-31T05:01:31;20.80;89.10
4677;DHT22;2352;48.180;11.478;2022-07-31T05:04:34;20.80;89.00
4677;DHT22;2352;48.180;11.478;2022-07-31T05:07:39;20.70;89.50
4677;DHT22;2352;48.180;11.478;2022-07-31T05:10:42;20.80;90.00
4677;DHT22;2352;48.180;11.478;2022-07-31T05:14:04;20.80;89.60
4677;DHT22;2352;48.180;11.478;2022-07-31T05:17:08;20.80;88.70
4677;DHT22;2352;48.180;11.478;2022-07-31T05:20:11;20.90;88.60
4677;DHT22;2352;48.180;11.478;2022-07-31T05:23:15;20.90;89.60
4677;DHT22;2352;48.180;11.478;2022-07-31T05:26:18;21.00;89.90
4677;DHT22;2352;48.180;11.478;2022-07-31T05:29:21;21.10;89.60
4677;DHT22;2352;48.180;11.478;2022-07-31T05:32:24;21.10;88.80
4677;DHT22;2352;48.180;11.478;2022-07-31T05:35:27;21.10;88.50
4677;DHT22;2352;48.180;11.478;2022-07-31T05:38:31;21.20;87.20
4677;DHT22;2352;48.180;11.478;2022-07-31T05:41:34;21.20;88.10
4677;DHT22;2352;48.180;11.478;2022-07-31T05:44:40;21.20;88.10
4677;DHT22;2352;48.180;11.478;2022-07-31T05:47:43;21.10;87.70
4677;DHT22;2352;48.180;11.478;2022-07-31T05:50:48;21.10;88.70
4677;DHT22;2352;48.180;11.478;2022-07-31T05:53:52;21.10;87.90
4677;DHT22;2352;48.180;11.478;2022-07-31T05:56:55;21.10;88.50
4677;DHT22;2352;48.180;11.478;2022-07-31T05:59:58;21.10;88.40
4677;DHT22;2352;48.180;11.478;2022-07-31T06:03:04;21.10;88.80
4677;DHT22;2352;48.180;11.478;2022-07-31T06:06:07;21.00;88.00
4677;DHT22;2352;48.180;11.478;2022-07-31T06:09:12;20.90;88.90
4677;DHT22;2352;48.180;11.478;2022-07-31T06:12:15;21.00;88.20
4677;DHT22;2352;48.180;11.478;2022-07-31T06:15:18;21.20;88.60
4677;DHT22;2352;48.180;11.478;2022-07-31T06:18:21;21.20;86.60
4677;DHT22;2352;48.180;11.478;2022-07-31T06:21:24;21.30;85.70
4677;DHT22;2352;48.180;11.478;2022-07-31T06:24:32;21.40;87.60
4677;DHT22;2352;48.180;11.478;2022-07-31T06:27:38;21.50;87.30
4677;DHT22;2352;48.180;11.478;2022-07-31T06:30:42;21.50;85.20
4677;DHT22;2352;48.180;11.478;2022-07-31T06:33:46;21.20;86.00
4677;DHT22;2352;48.180;11.478;2022-07-31T06:36:50;21.10;86.50
4677;DHT22;2352;48.180;11.478;2022-07-31T06:39:54;21.30;87.60
4677;DHT22;2352;48.180;11.478;2022-07-31T06:42:57;21.20;86.20
4677;DHT22;2352;48.180;11.478;2022-07-31T06:46:07;21.30;86.40
4677;DHT22;2352;48.180;11.478;2022-07-31T06:49:15;21.20;86.00
4677;DHT22;2352;48.180;11.478;2022-07-31T06:52:18;21.20;87.60
4677;DHT22;2352;48.180;11.478;2022-07-31T06:55:22;21.50;86.00
4677;DHT22;2352;48.180;11.478;2022-07-31T06:58:25;21.60;86.50
4677;DHT22;2352;48.180;11.478;2022-07-31T07:01:28;21.70;84.20
4677;DHT22;2352;48.180;11.478;2022-07-31T07:04:32;21.70;85.00
4677;DHT22;2352;48.180;11.478;2022-07-31T07:07:55;21.80;84.30
4677;DHT22;2352;48.180;11.478;2022-07-31T07:10:59;21.90;84.90
4677;DHT22;2352;48.180;11.478;2022-07-31T07:14:02;21.90;82.90
4677;DHT22;2352;48.180;11.478;2022-07-31T07:17:05;21.80;82.30
4677;DHT22;2352;48.180;11.478;2022-07-31T07:20:09;21.80;83.30
4677;DHT22;2352;48.180;11.478;2022-07-31T07:23:12;21.60;83.10
4677;DHT22;2352;48.180;11.478;2022-07-31T07:26:16;21.60;83.40
4677;DHT22;2352;48.180;11.478;2022-07-31T07:29:19;21.60;84.80
4677;DHT22;2352;48.180;11.478;2022-07-31T07:32:22;21.70;84.10
4677;DHT22;2352;48.180;11.478;2022-07-31T07:35:27;21.70;84.00
4677;DHT22;2352;48.180;11.478;2022-07-31T07:38:34;21.80;84.90
4677;DHT22;2352;48.180;11.478;2022-07-31T07:41:39;21.80;84.90
4677;DHT22;2352;48.180;11.478;2022-07-31T07:44:42;21.90;83.90
4677;DHT22;2352;48.180;11.478;2022-07-31T07:47:45;21.90;82.90
4677;DHT22;2352;48.180;11.478;2022-07-31T07:51:06;22.00;84.90
4677;DHT22;2352;48.180;11.478;2022-07-31T07:54:09;22.00;82.40
4677;DHT22;2352;48.180;11.478;2022-07-31T07:57:15;22.10;82.90
4677;DHT22;2352;48.180;11.478;2022-07-31T08:00:19;22.20;82.40
4677;DHT22;2352;48.180;11.478;2022-07-31T08:03:22;22.30;80.40
4677;DHT22;2352;48.180;11.478;2022-07-31T08:06:45;22.30;80.60
4677;DHT22;2352;48.180;11.478;2022-07-31T08:09:48;22.20;79.10
4677;DHT22;2352;48.180;11.478;2022-07-31T08:12:52;22.10;80.50
4677;DHT22;2352;48.180;11.478;2022-07-31T08:15:55;22.30;83.30
4677;DHT22;2352;48.180;11.478;2022-07-31T08:18:59;22.50;81.10
4677;DHT22;2352;48.180;11.478;2022-07-31T08:22:01;22.50;78.60
4677;DHT22;2352;48.180;11.478;2022-07-31T08:25:05;22.40;78.80
4677;DHT22;2352;48.180;11.478;2022-07-31T08:28:17;22.40;78.70
4677;DHT22;2352;48.180;11.478;2022-07-31T08:31:24;22.60;81.50
4677;DHT22;2352;48.180;11.478;2022-07-31T08:34:27;22.80;80.60
4677;DHT22;2352;48.180;11.478;2022-07-31T08:37:32;22.90;79.10
4677;DHT22;2352;48.180;11.478;2022-07-31T08:40:55;22.90;77.40
4677;DHT22;2352;48.180;11.478;2022-07-31T08:43:59;22.90;78.00
4677;DHT22;2352;48.180;11.478;2022-07-31T08:47:05;22.90;79.10
4677;DHT22;2352;48.180;11.478;2022-07-31T08:50:09;23.00;78.10
4677;DHT22;2352;48.180;11.478;2022-07-31T08:53:14;23.20;77.50
4677;DHT22;2352;48.180;11.478;2022-07-31T08:56:19;23.40;75.60
4677;DHT22;2352;48.180;11.478;2022-07-31T08:59:23;23.50;74.80
4677;DHT22;2352;48.180;11.478;2022-07-31T09:02:26;23.60;77.40
4677;DHT22;2352;48.180;11.478;2022-07-31T09:05:29;23.80;74.30
4677;DHT22;2352;48.180;11.478;2022-07-31T09:08:43;23.90;73.60
4677;DHT22;2352;48.180;11.478;2022-07-31T09:11:47;23.70;73.40
4677;DHT22;2352;48.180;11.478;2022-07-31T09:14:51;23.60;75.00
4677;DHT22;2352;48.180;11.478;2022-07-31T09:17:55;23.70;74.90
4677;DHT22;2352;48.180;11.478;2022-07-31T09:21:01;24.00;75.60
4677;DHT22;2352;48.180;11.478;2022-07-31T09:24:05;24.20;73.80
4677;DHT22;2352;48.180;11.478;2022-07-31T09:27:10;24.40;72.90
4677;DHT22;2352;48.180;11.478;2022-07-31T09:30:16;24.60;69.40
4677;DHT22;2352;48.180;11.478;2022-07-31T09:33:19;24.60;68.20
4677;DHT22;2352;48.180;11.478;2022-07-31T09:36:23;24.80;68.50
4677;DHT22;2352;48.180;11.478;2022-07-31T09:39:26;24.90;66.60
4677;DHT22;2352;48.180;11.478;2022-07-31T09:42:36;25.00;66.40
4677;DHT22;2352;48.180;11.478;2022-07-31T09:45:55;25.00;63.60
4677;DHT22;2352;48.180;11.478;2022-07-31T09:48:59;25.10;61.50
4677;DHT22;2352;48.180;11.478;2022-07-31T09:52:02;25.30;61.00
4677;DHT22;2352;48.180;11.478;2022-07-31T09:55:07;25.40;61.30
4677;DHT22;2352;48.180;11.478;2022-07-31T09:58:17;25.50;60.60
4677;DHT22;2352;48.180;11.478;2022-07-31T10:01:22;25.60;57.90
4677;DHT22;2352;48.180;11.478;2022-07-31T10:04:26;25.70;58.10
4677;DHT22;2352;48.180;11.478;2022-07-31T10:07:29;25.80;54.40
4677;DHT22;2352;48.180;11.478;2022-07-31T10:10:36;25.70;53.60
4677;DHT22;2352;48.180;11.478;2022-07-31T10:13:45;25.60;54.90
4677;DHT22;2352;48.180;11.478;2022-07-31T10:16:55;25.60;51.60
4677;DHT22;2352;48.180;11.478;2022-07-31T10:20:02;25.90;54.70
4677;DHT22;2352;48.180;11.478;2022-07-31T10:23:13;25.80;55.10
4677;DHT22;2352;48.180;11.478;2022-07-31T10:26:19;25.90;53.80
4677;DHT22;2352;48.180;11.478;2022-07-31T10:29:40;26.10;54.30
4677;DHT22;2352;48.180;11.478;2022-07-31T10:32:44;26.20;53.90
4677;DHT22;2352;48.180;11.478;2022-07-31T10:35:53;26.40;54.00
4677;DHT22;2352;48.180;11.478;2022-07-31T10:39:01;26.50;53.50
4677;DHT22;2352;48.180;11.478;2022-07-31T10:42:09;26.70;53.20
4677;DHT22;2352;48.180;11.478;2022-07-31T10:45:14;26.90;53.90
4677;DHT22;2352;48.180;11.478;2022-07-31T10:48:19;27.00;54.00
4677;DHT22;2352;48.180;11.478;2022-07-31T10:51:22;27.10;53.00
4677;DHT22;2352;48.180;11.478;2022-07-31T10:54:37;27.20;51.30
4677;DHT22;2352;48.180;11.478;2022-07-31T10:57:41;27.10;51.10
4677;DHT22;2352;48.180;11.478;2022-07-31T11:01:05;27.10;51.80
4677;DHT22;2352;48.180;11.478;2022-07-31T11:04:10;27.30;52.50
4677;DHT22;2352;48.180;11.478;2022-07-31T11:07:16;27.30;52.80
4677;DHT22;2352;48.180;11.478;2022-07-31T11:10:20;27.50;49.70
4677;DHT22;2352;48.180;11.478;2022-07-31T11:13:23;27.40;52.40
4677;DHT22;2352;48.180;11.478;2022-07-31T11:16:48;27.50;51.00
4677;DHT22;2352;48.180;11.478;2022-07-31T11:19:52;27.40;51.60
4677;DHT22;2352;48.180;11.478;2022-07-31T11:22:59;27.30;52.00
4677;DHT22;2352;48.180;11.478;2022-07-31T11:26:04;27.00;51.90
4677;DHT22;2352;48.180;11.478;2022-07-31T11:29:08;27.20;54.40
4677;DHT22;2352;48.180;11.478;2022-07-31T11:32:32;27.40;51.60
4677;DHT22;2352;48.180;11.478;2022-07-31T11:35:36;27.70;53.60
4677;DHT22;2352;48.180;11.478;2022-07-31T11:38:42;27.90;52.40
4677;DHT22;2352;48.180;11.478;2022-07-31T11:41:48;27.70;50.70
4677;DHT22;2352;48.180;11.478;2022-07-31T11:44:51;27.60;51.30
4677;DHT22;2352;48.180;11.478;2022-07-31T11:47:55;27.50;51.10
4677;DHT22;2352;48.180;11.478;2022-07-31T11:51:27;27.50;50.50
4677;DHT22;2352;48.180;11.478;2022-07-31T11:54:31;27.50;50.30
4677;DHT22;2352;48.180;11.478;2022-07-31T11:57:34;27.50;51.80
4677;DHT22;2352;48.180;11.478;2022-07-31T12:00:54;27.40;50.90
4677;DHT22;2352;48.180;11.478;2022-07-31T12:03:57;27.40;50.80
4677;DHT22;2352;48.180;11.478;2022-07-31T12:07:11;27.40;50.60
4677;DHT22;2352;48.180;11.478;2022-07-31T12:10:14;27.50;51.80
4677;DHT22;2352;48.180;11.478;2022-07-31T12:13:19;27.70;50.80
4677;DHT22;2352;48.180;11.478;2022-07-31T12:16:22;27.70;49.70
4677;DHT22;2352;48.180;11.478;2022-07-31T12:19:25;27.80;50.20
4677;DHT22;2352;48.180;11.478;2022-07-31T12:22:30;27.70;50.70
4677;DHT22;2352;48.180;11.478;2022-07-31T12:25:41;27.80;50.90
4677;DHT22;2352;48.180;11.478;2022-07-31T12:28:55;28.00;50.10
4677;DHT22;2352;48.180;11.478;2022-07-31T12:31:59;28.10;50.00
4677;DHT22;2352;48.180;11.478;2022-07-31T12:35:03;28.30;49.00
4677;DHT22;2352;48.180;11.478;2022-07-31T12:38:08;28.50;48.30
4677;DHT22;2352;48.180;11.478;2022-07-31T12:41:40;28.70;49.40
4677;DHT22;2352;48.180;11.478;2022-07-31T12:44:46;28.70;50.00
4677;DHT22;2352;48.180;11.478;2022-07-31T12:47:52;28.80;49.40
4677;DHT22;2352;48.180;11.478;2022-07-31T12:50:55;28.90;48.80
4677;DHT22;2352;48.180;11.478;2022-07-31T12:54:01;28.60;47.20
4677;DHT22;2352;48.180;11.478;2022-07-31T12:57:05;28.50;49.00
4677;DHT22;2352;48.180;11.478;2022-07-31T13:00:09;28.80;49.90
4677;DHT22;2352;48.180;11.478;2022-07-31T13:03:14;29.00;49.20
4677;DHT22;2352;48.180;11.478;2022-07-31T13:06:17;29.10;49.70
4677;DHT22;2352;48.180;11.478;2022-07-31T13:09:21;29.20;47.90
4677;DHT22;2352;48.180;11.478;2022-07-31T13:12:24;29.20;46.90
4677;DHT22;2352;48.180;11.478;2022-07-31T13:15:27;29.30;44.80
4677;DHT22;2352;48.180;11.478;2022-07-31T13:18:31;29.30;44.10
4677;DHT22;2352;48.180;11.478;2022-07-31T13:21:36;29.30;44.50
4677;DHT22;2352;48.180;11.478;2022-07-31T13:24:51;29.20;45.50
4677;DHT22;2352;48.180;11.478;2022-07-31T13:27:54;29.20;43.30
4677;DHT22;2352;48.180;11.478;2022-07-31T13:30:57;28.90;41.60
4677;DHT22;2352;48.180;11.478;2022-07-31T13:34:00;28.70;44.80
4677;DHT22;2352;48.180;11.478;2022-07-31T13:37:03;29.00;45.50
4677;DHT22;2352;48.180;11.478;2022-07-31T13:40:08;29.10;46.10
4677;DHT22;2352;48.180;11.478;2022-07-31T13:43:12;29.00;46.00
4677;DHT22;2352;48.180;11.478;2022-07-31T13:46:15;29.10;47.60
4677;DHT22;2352;48.180;11.478;2022-07-31T13:49:18;29.30;48.50
4677;DHT22;2352;48.180;11.478;2022-07-31T13:52:21;29.50;46.90
4677;DHT22;2352;48.180;11.478;2022-07-31T13:55:25;29.50;46.20
4677;DHT22;2352;48.180;11.478;2022-07-31T13:58:28;29.50;47.10
4677;DHT22;2352;48.180;11.478;2022-07-31T14:01:31;29.60;45.60
4677;DHT22;2352;48.180;11.478;2022-07-31T14:04:54;29.60;47.80
4677;DHT22;2352;48.180;11.478;2022-07-31T14:07:57;29.60;47.10
4677;DHT22;2352;48.180;11.478;2022-07-31T14:11:22;29.60;47.40
4677;DHT22;2352;48.180;11.478;2022-07-31T14:14:25;29.70;46.80
4677;DHT22;2352;48.180;11.478;2022-07-31T14:17:28;29.70;46.00
4677;DHT22;2352;48.180;11.478;2022-07-31T14:20:32;29.70;45.50
4677;DHT22;2352;48.180;11.478;2022-07-31T14:23:35;29.70;48.20
4677;DHT22;2352;48.180;11.478;2022-07-31T14:26:42;29.50;46.00
4677;DHT22;2352;48.180;11.478;2022-07-31T14:29:45;29.50;47.50
4677;DHT22;2352;48.180;11.478;2022-07-31T14:32:48;29.60;46.40
4677;DHT22;2352;48.180;11.478;2022-07-31T14:35:51;29.80;47.10
4677;DHT22;2352;48.180;11.478;2022-07-31T14:38:56;29.90;46.60
4677;DHT22;2352;48.180;11.478;2022-07-31T14:42:00;29.90;46.40
4677;DHT22;2352;48.180;11.478;2022-07-31T14:45:04;29.90;46.50
4677;DHT22;2352;48.180;11.478;2022-07-31T14:48:07;29.90;45.50
4677;DHT22;2352;48.180;11.478;2022-07-31T14:51:16;29.90;45.50
4677;DHT22;2352;48.180;11.478;2022-07-31T14:54:19;29.70;45.40
4677;DHT22;2352;48.180;11.478;2022-07-31T14:57:23;29.70;46.60
4677;DHT22;2352;48.180;11.478;2022-07-31T15:00:26;29.50;45.30
4677;DHT22;2352;48.180;11.478;2022-07-31T15:03:29;29.50;44.50
4677;DHT22;2352;48.180;11.478;2022-07-31T15:06:32;29.50;45.90
4677;DHT22;2352;48.180;11.478;2022-07-31T15:09:55;29.60;45.10
4677;DHT22;2352;48.180;11.478;2022-07-31T15:13:00;29.60;45.40
4677;DHT22;2352;48.180;11.478;2022-07-31T15:16:03;29.50;45.70
4677;DHT22;2352;48.180;11.478;2022-07-31T15:19:06;29.60;45.10
4677;DHT22;2352;48.180;11.478;2022-07-31T15:22:10;29.50;45.30
4677;DHT22;2352;48.180;11.478;2022-07-31T15:25:17;29.50;43.90
4677;DHT22;2352;48.180;11.478;2022-07-31T15:28:22;29.40;45.20
4677;DHT22;2352;48.180;11.478;2022-07-31T15:31:25;29.40;44.90
4677;DHT22;2352;48.180;11.478;2022-07-31T15:34:28;29.40;46.00
4677;DHT22;2352;48.180;11.478;2022-07-31T15:37:34;29.20;44.30
4677;DHT22;2352;48.180;11.478;2022-07-31T15:40:37;29.20;45.50
4677;DHT22;2352;48.180;11.478;2022-07-31T15:43:41;29.20;46.10
4677;DHT22;2352;48.180;11.478;2022-07-31T15:46:44;29.20;46.20
4677;DHT22;2352;48.180;11.478;2022-07-31T15:49:47;29.20;45.50
4677;DHT22;2352;48.180;11.478;2022-07-31T15:52:51;29.10;45.20
4677;DHT22;2352;48.180;11.478;2022-07-31T15:55:53;29.10;45.50
4677;DHT22;2352;48.180;11.478;2022-07-31T15:58:58;29.10;44.80
4677;DHT22;2352;48.180;11.478;2022-07-31T16:02:01;29.10;45.30
4677;DHT22;2352;48.180;11.478;2022-07-31T16:05:05;29.00;45.40
4677;DHT22;2352;48.180;11.478;2022-07-31T16:08:22;28.90;45.30
4677;DHT22;2352;48.180;11.478;2022-07-31T16:11:35;29.00;47.90
4677;DHT22;2352;48.180;11.478;2022-07-31T16:14:59;28.90;46.80
4677;DHT22;2352;48.180;11.478;2022-07-31T16:18:03;29.00;47.10
4677;DHT22;2352;48.180;11.478;2022-07-31T16:21:06;28.80;45.40
4677;DHT22;2352;48.180;11.478;2022-07-31T16:24:09;28.70;45.70
4677;DHT22;2352;48.180;11.478;2022-07-31T16:27:12;28.40;45.30
4677;DHT22;2352;48.180;11.478;2022-07-31T16:30:16;28.40;46.10
4677;DHT22;2352;48.180;11.478;2022-07-31T16:33:19;28.40;46.30
4677;DHT22;2352;48.180;11.478;2022-07-31T16:36:22;28.40;46.70
4677;DHT22;2352;48.180;11.478;2022-07-31T16:39:25;28.40;45.90
4677;DHT22;2352;48.180;11.478;2022-07-31T16:42:28;28.30;46.10
4677;DHT22;2352;48.180;11.478;2022-07-31T16:45:32;28.20;46.50
4677;DHT22;2352;48.180;11.478;2022-07-31T16:48:36;28.30;47.00
4677;DHT22;2352;48.180;11.478;2022-07-31T16:51:39;28.40;48.80
4677;DHT22;2352;48.180;11.478;2022-07-31T16:54:42;28.30;46.40
4677;DHT22;2352;48.180;11.478;2022-07-31T16:57:45;28.30;46.70
4677;DHT22;2352;48.180;11.478;2022-07-31T17:00:50;28.40;46.90
4677;DHT22;2352;48.180;11.478;2022-07-31T17:03:53;28.30;46.70
4677;DHT22;2352;48.180;11.478;2022-07-31T17:07:03;28.30;47.00
4677;DHT22;2352;48.180;11.478;2022-07-31T17:10:07;28.30;47.70
4677;DHT22;2352;48.180;11.478;2022-07-31T17:13:10;28.20;47.00
4677;DHT22;2352;48.180;11.478;2022-07-31T17:16:15;28.20;47.50
4677;DHT22;2352;48.180;11.478;2022-07-31T17:19:19;28.20;48.50
4677;DHT22;2352;48.180;11.478;2022-07-31T17:22:43;28.30;48.20
4677;DHT22;2352;48.180;11.478;2022-07-31T17:25:53;28.30;48.30
4677;DHT22;2352;48.180;11.478;2022-07-31T17:28:56;28.20;46.80
4677;DHT22;2352;48.180;11.478;2022-07-31T17:32:01;28.20;47.30
4677;DHT22;2352;48.180;11.478;2022-07-31T17:35:05;28.10;48.00
4677;DHT22;2352;48.180;11.478;2022-07-31T17:38:13;28.00;48.20
4677;DHT22;2352;48.180;11.478;2022-07-31T17:41:16;28.00;47.90
4677;DHT22;2352;48.180;11.478;2022-07-31T17:44:25;28.00;49.70
4677;DHT22;2352;48.180;11.478;2022-07-31T17:47:30;28.10;49.30
4677;DHT22;2352;48.180;11.478;2022-07-31T17:50:34;28.10;49.70
4677;DHT22;2352;48.180;11.478;2022-07-31T17:53:37;28.10;48.50
4677;DHT22;2352;48.180;11.478;2022-07-31T17:56:55;28.00;48.90
4677;DHT22;2352;48.180;11.478;2022-07-31T17:59:58;28.00;49.30
4677;DHT22;2352;48.180;11.478;2022-07-31T18:03:03;27.90;49.70
4677;DHT22;2352;48.180;11.478;2022-07-31T18:06:06;27.90;49.20
4677;DHT22;2352;48.180;11.478;2022-07-31T18:09:09;28.00;51.10
4677;DHT22;2352;48.180;11.478;2022-07-31T18:12:11;28.00;51.00
4677;DHT22;2352;48.180;11.478;2022-07-31T18:15:16;28.00;50.70
4677;DHT22;2352;48.180;11.478;2022-07-31T18:18:21;28.00;51.50
4677;DHT22;2352;48.180;11.478;2022-07-31T18:21:23;27.90;50.70
4677;DHT22;2352;48.180;11.478;2022-07-31T18:24:26;27.90;50.90
4677;DHT22;2352;48.180;11.478;2022-07-31T18:27:29;27.80;50.70
4677;DHT22;2352;48.180;11.478;2022-07-31T18:30:32;27.70;50.70
4677;DHT22;2352;48.180;11.478;2022-07-31T18:33:40;27.70;51.70
4677;DHT22;2352;48.180;11.478;2022-07-31T18:36:44;27.70;51.60
4677;DHT22;2352;48.180;11.478;2022-07-31T18:39:46;27.70;52.10
4677;DHT22;2352;48.180;11.478;2022-07-31T18:42:50;27.60;51.90
4677;DHT22;2352;48.180;11.478;2022-07-31T18:45:52;27.60;53.00
4677;DHT22;2352;48.180;11.478;2022-07-31T18:48:57;27.60;52.50
4677;DHT22;2352;48.180;11.478;2022-07-31T18:52:01;27.60;53.20
4677;DHT22;2352;48.180;11.478;2022-07-31T18:55:05;27.60;53.40
4677;DHT22;2352;48.180;11.478;2022-07-31T18:58:09;27.60;54.10
4677;DHT22;2352;48.180;11.478;2022-07-31T19:01:12;27.50;54.50
4677;DHT22;2352;48.180;11.478;2022-07-31T19:04:17;27.50;54.80
4677;DHT22;2352;48.180;11.478;2022-07-31T19:07:19;27.40;55.00
4677;DHT22;2352;48.180;11.478;2022-07-31T19:10:22;27.40;55.50
4677;DHT22;2352;48.180;11.478;2022-07-31T19:13:31;27.40;55.90
4677;DHT22;2352;48.180;11.478;2022-07-31T19:16:34;27.30;56.00
4677;DHT22;2352;48.180;11.478;2022-07-31T19:19:40;27.20;54.00
4677;DHT22;2352;48.180;11.478;2022-07-31T19:22:55;27.10;56.50
4677;DHT22;2352;48.180;11.478;2022-07-31T19:25:58;27.10;54.90
4677;DHT22;2352;48.180;11.478;2022-07-31T19:29:05;27.00;55.50
4677;DHT22;2352;48.180;11.478;2022-07-31T19:32:08;27.00;56.10
4677;DHT22;2352;48.180;11.478;2022-07-31T19:35:13;27.00;56.30
4677;DHT22;2352;48.180;11.478;2022-07-31T19:38:16;27.00;56.70
4677;DHT22;2352;48.180;11.478;2022-07-31T19:41:19;27.00;56.70
4677;DHT22;2352;48.180;11.478;2022-07-31T19:44:22;26.90;55.40
4677;DHT22;2352;48.180;11.478;2022-07-31T19:47:25;26.90;55.30
4677;DHT22;2352;48.180;11.478;2022-07-31T19:50:29;26.80;56.50